createdAt,value
2022-08-17T00:00:10.223Z,11.15
2022-08-17T00:03:17.158Z,11.48
2022-08-17T00:05:52.315Z,11.93
2022-08-17T00:08:24.339Z,12.68
2022-08-17T00:10:53.953Z,11.00
2022-08-17T00:13:43.060Z,13.95
2022-08-17T00:16:51.001Z,10.90
2022-08-17T00:19:26.310Z,11.40
2022-08-17T00:22:29.766Z,13.30
2022-08-17T00:24:45.037Z,12.00
2022-08-17T00:27:12.010Z,13.25
2022-08-17T00:29:38.972Z,13.68
2022-08-17T00:33:15.012Z,13.95
2022-08-17T00:34:53.665Z,13.93
2022-08-17T00:37:21.046Z,13.68
2022-08-17T00:39:48.276Z,14.15
2022-08-17T00:42:18.332Z,13.98
2022-08-17T00:44:46.441Z,13.55
2022-08-17T00:47:13.605Z,14.40
2022-08-17T00:49:40.677Z,14.80
2022-08-17T00:52:16.716Z,14.48
2022-08-17T00:54:47.575Z,13.52
2022-08-17T00:57:31.735Z,13.48
2022-08-17T01:00:26.930Z,12.95
2022-08-17T01:03:00.829Z,11.63
2022-08-17T01:05:32.742Z,13.70
2022-08-17T01:08:02.667Z,13.93
2022-08-17T01:10:58.481Z,13.30
2022-08-17T01:13:30.374Z,13.13
2022-08-17T01:16:05.263Z,14.40
2022-08-17T01:18:33.887Z,14.05
2022-08-17T01:21:09.284Z,14.00
2022-08-17T01:23:37.204Z,13.07
2022-08-17T01:26:06.309Z,12.85
2022-08-17T01:28:53.699Z,12.80
2022-08-17T01:31:25.435Z,13.15
2022-08-17T01:33:53.356Z,13.32
2022-08-17T01:36:21.019Z,13.38
2022-08-17T01:38:48.552Z,12.82
2022-08-17T01:41:16.856Z,11.95
2022-08-17T01:43:51.843Z,13.75
2022-08-17T01:46:27.472Z,14.75
2022-08-17T01:48:57.624Z,14.55
2022-08-17T01:51:32.161Z,12.27
2022-08-17T01:54:05.300Z,14.35
2022-08-17T01:56:35.709Z,12.98
2022-08-17T01:59:03.696Z,14.85
2022-08-17T02:01:34.617Z,16.10
2022-08-17T02:04:02.320Z,15.85
2022-08-17T02:06:53.745Z,16.75
2022-08-17T02:09:26.329Z,16.45
2022-08-17T02:12:37.383Z,15.63
2022-08-17T02:14:47.415Z,14.20
2022-08-17T02:17:14.469Z,15.45
2022-08-17T02:19:41.894Z,15.10
2022-08-17T02:22:09.412Z,15.13
2022-08-17T02:24:59.901Z,15.02
2022-08-17T02:27:25.418Z,14.35
2022-08-17T02:29:52.535Z,13.70
2022-08-17T02:32:28.032Z,15.57
2022-08-17T02:34:59.935Z,12.95
2022-08-17T02:37:30.130Z,13.95
2022-08-17T02:39:58.751Z,13.32
2022-08-17T02:42:52.609Z,12.52
2022-08-17T02:45:24.420Z,12.45
2022-08-17T02:47:52.875Z,13.88
2022-08-17T02:50:24.323Z,13.05
2022-08-17T02:53:01.907Z,11.82
2022-08-17T02:55:38.362Z,12.57
2022-08-17T02:58:05.462Z,13.60
2022-08-17T03:00:41.004Z,11.38
2022-08-17T03:03:10.867Z,12.43
2022-08-17T03:05:38.771Z,13.30
2022-08-17T03:08:12.975Z,13.48
2022-08-17T03:10:41.646Z,14.57
2022-08-17T03:13:08.850Z,14.50
2022-08-17T03:15:36.630Z,14.95
2022-08-17T03:18:07.935Z,13.73
2022-08-17T03:20:46.672Z,13.30
2022-08-17T03:23:13.696Z,14.27
2022-08-17T03:25:44.168Z,13.70
2022-08-17T03:28:14.035Z,13.20
2022-08-17T03:30:42.718Z,14.15
2022-08-17T03:33:10.292Z,14.38
2022-08-17T03:35:40.683Z,13.70
2022-08-17T03:38:11.874Z,15.50
2022-08-17T03:40:58.957Z,14.68
2022-08-17T03:43:32.747Z,15.52
2022-08-17T03:46:28.865Z,14.32
2022-08-17T03:49:26.530Z,14.55
2022-08-17T03:52:15.428Z,15.23
2022-08-17T03:55:10.264Z,15.63
2022-08-17T03:57:37.593Z,15.35
2022-08-17T04:00:05.573Z,15.88
2022-08-17T04:02:39.084Z,15.18
2022-08-17T04:05:06.504Z,14.30
2022-08-17T04:07:33.543Z,16.27
2022-08-17T04:10:00.931Z,15.75
2022-08-17T04:12:31.335Z,15.95
2022-08-17T04:14:59.415Z,17.10
2022-08-17T04:17:29.305Z,16.08
2022-08-17T04:19:57.767Z,16.23
2022-08-17T04:22:32.917Z,16.90
2022-08-17T04:25:06.682Z,16.98
2022-08-17T04:27:34.434Z,16.70
2022-08-17T04:30:02.832Z,17.17
2022-08-17T04:33:03.493Z,18.23
2022-08-17T04:35:24.665Z,17.58
2022-08-17T04:37:52.662Z,16.40
2022-08-17T04:40:40.691Z,16.65
2022-08-17T04:43:16.462Z,17.50
2022-08-17T04:45:55.544Z,17.60
2022-08-17T04:48:37.573Z,18.35
2022-08-17T04:51:14.587Z,18.58
2022-08-17T04:53:53.954Z,17.50
2022-08-17T04:56:25.912Z,18.58
2022-08-17T04:58:58.496Z,17.25
2022-08-17T05:01:28.508Z,17.05
2022-08-17T05:03:59.174Z,16.63
2022-08-17T05:06:28.440Z,17.85
2022-08-17T05:08:57.686Z,17.20
2022-08-17T05:11:27.178Z,16.58
2022-08-17T05:13:56.799Z,17.38
2022-08-17T05:16:26.186Z,16.55
2022-08-17T05:18:53.647Z,17.17
2022-08-17T05:21:23.028Z,17.25
2022-08-17T05:23:55.002Z,19.48
2022-08-17T05:26:26.941Z,17.23
2022-08-17T05:29:00.367Z,16.08
2022-08-17T05:31:30.841Z,18.15
2022-08-17T05:33:58.246Z,17.83
2022-08-17T05:36:43.543Z,16.63
2022-08-17T05:39:16.867Z,18.15
2022-08-17T05:41:48.591Z,18.15
2022-08-17T05:44:17.289Z,18.67
2022-08-17T05:46:50.100Z,18.80
2022-08-17T05:49:27.554Z,18.80
2022-08-17T05:52:03.688Z,17.70
2022-08-17T05:55:01.705Z,17.80
2022-08-17T05:57:47.562Z,16.50
2022-08-17T06:00:30.606Z,16.77
2022-08-17T06:03:40.358Z,16.23
2022-08-17T06:06:38.209Z,15.63
2022-08-17T06:09:51.542Z,16.38
2022-08-17T06:12:37.474Z,16.20
2022-08-17T06:15:24.772Z,16.92
2022-08-17T06:18:02.181Z,15.77
2022-08-17T06:20:40.913Z,14.10
2022-08-17T06:23:18.296Z,15.57
2022-08-17T06:25:52.881Z,15.27
2022-08-17T06:28:30.556Z,13.23
2022-08-17T06:31:06.915Z,14.32
2022-08-17T06:33:38.109Z,12.95
2022-08-17T06:36:29.277Z,13.68
2022-08-17T06:39:39.735Z,15.20
2022-08-17T06:43:02.928Z,14.15
2022-08-17T06:45:20.560Z,13.57
2022-08-17T06:47:56.498Z,13.93
2022-08-17T06:50:54.955Z,12.98
2022-08-17T06:53:31.948Z,14.45
2022-08-17T06:56:06.490Z,14.60
2022-08-17T06:58:36.688Z,14.35
2022-08-17T07:01:23.172Z,13.10
2022-08-17T07:04:11.969Z,12.00
2022-08-17T07:06:58.409Z,14.10
2022-08-17T07:09:36.507Z,11.68
2022-08-17T07:12:22.142Z,12.30
2022-08-17T07:14:57.783Z,10.65
2022-08-17T07:17:48.009Z,10.57
2022-08-17T07:20:21.379Z,9.10
2022-08-17T07:22:59.871Z,8.00
2022-08-17T07:25:30.482Z,9.18
2022-08-17T07:28:02.598Z,9.18
2022-08-17T07:30:47.509Z,9.45
2022-08-17T07:33:30.147Z,9.27
2022-08-17T07:35:58.220Z,10.00
2022-08-17T07:38:35.546Z,9.02
2022-08-17T07:41:08.878Z,8.80
2022-08-17T07:43:42.052Z,8.45
2022-08-17T07:46:51.996Z,8.85
2022-08-17T07:49:31.155Z,9.00
2022-08-17T07:52:48.211Z,8.13
2022-08-17T07:54:50.919Z,8.32
2022-08-17T07:57:25.411Z,6.82
2022-08-17T08:00:02.200Z,7.85
2022-08-17T08:02:45.273Z,7.20
2022-08-17T08:05:48.845Z,8.13
2022-08-17T08:08:43.230Z,7.35
2022-08-17T08:11:15.767Z,8.88
2022-08-17T08:13:45.783Z,9.03
2022-08-17T08:16:24.719Z,7.90
2022-08-17T08:19:02.107Z,7.63
2022-08-17T08:21:52.134Z,8.88
2022-08-17T08:24:30.116Z,8.40
2022-08-17T08:27:29.807Z,8.40
2022-08-17T08:30:22.511Z,7.75
2022-08-17T08:33:20.192Z,9.40
2022-08-17T08:36:14.304Z,8.65
2022-08-17T08:39:09.934Z,9.60
2022-08-17T08:42:09.740Z,8.43
2022-08-17T08:45:07.551Z,8.65
2022-08-17T08:48:46.172Z,9.38
2022-08-17T08:51:08.576Z,11.70
2022-08-17T08:54:09.252Z,11.13
2022-08-17T08:57:19.789Z,9.55
2022-08-17T09:00:15.717Z,10.18
2022-08-17T09:03:36.727Z,10.20
2022-08-17T09:06:33.246Z,9.40
2022-08-17T09:09:27.942Z,9.95
2022-08-17T09:12:14.015Z,9.63
2022-08-17T09:14:57.689Z,10.32
2022-08-17T09:18:59.791Z,10.18
2022-08-17T09:21:14.863Z,10.02
2022-08-17T09:24:04.933Z,9.68
2022-08-17T09:26:49.311Z,9.55
2022-08-17T09:29:18.243Z,9.60
2022-08-17T09:31:58.687Z,8.48
2022-08-17T09:34:43.645Z,8.95
2022-08-17T09:38:02.136Z,9.35
2022-08-17T09:40:43.730Z,9.30
2022-08-17T09:43:27.273Z,10.38
2022-08-17T09:46:16.721Z,8.85
2022-08-17T09:49:15.201Z,8.60
2022-08-17T09:51:49.449Z,9.20
2022-08-17T09:54:39.206Z,9.68
2022-08-17T09:57:39.849Z,10.82
2022-08-17T10:00:27.488Z,9.60
2022-08-17T10:03:10.334Z,9.00
2022-08-17T10:05:56.894Z,8.30
2022-08-17T10:08:52.355Z,9.65
2022-08-17T10:11:52.846Z,9.15
2022-08-17T10:15:08.230Z,9.40
2022-08-17T10:18:13.856Z,7.50
2022-08-17T10:21:26.172Z,7.93
2022-08-17T10:24:26.708Z,8.05
2022-08-17T10:26:58.164Z,7.53
2022-08-17T10:29:48.614Z,7.82
2022-08-17T10:32:26.036Z,7.57
2022-08-17T10:35:03.882Z,7.35
2022-08-17T10:37:55.555Z,7.72
2022-08-17T10:40:36.447Z,7.28
2022-08-17T10:43:23.220Z,6.03
2022-08-17T10:46:31.132Z,6.38
2022-08-17T10:49:17.116Z,7.25
2022-08-17T10:51:54.537Z,6.65
2022-08-17T10:54:24.379Z,6.03
2022-08-17T10:56:57.293Z,6.78
2022-08-17T10:59:36.292Z,6.20
2022-08-17T11:02:13.178Z,6.88
2022-08-17T11:04:55.619Z,6.57
2022-08-17T11:07:43.942Z,7.35
2022-08-17T11:10:42.938Z,5.82
2022-08-17T11:13:39.975Z,7.13
2022-08-17T11:16:33.185Z,8.57
2022-08-17T11:19:12.267Z,5.77
2022-08-17T11:22:24.451Z,7.68
2022-08-17T11:24:54.139Z,6.70
2022-08-17T11:27:32.112Z,6.20
2022-08-17T11:30:07.335Z,8.00
2022-08-17T11:32:54.396Z,6.88
2022-08-17T11:35:21.847Z,7.68
2022-08-17T11:38:16.915Z,6.38
2022-08-17T11:41:27.481Z,6.45
2022-08-17T11:44:37.830Z,6.03
2022-08-17T11:47:39.399Z,4.85
2022-08-17T11:50:56.770Z,5.43
2022-08-17T11:53:39.288Z,6.35
2022-08-17T11:56:44.024Z,5.97
2022-08-17T11:59:36.642Z,5.10
2022-08-17T12:02:19.997Z,6.65
2022-08-17T12:05:04.958Z,5.38
2022-08-17T12:08:05.715Z,6.18
2022-08-17T12:10:39.878Z,5.07
2022-08-17T12:13:14.928Z,4.90
2022-08-17T12:15:49.741Z,5.88
2022-08-17T12:18:28.164Z,5.85
2022-08-17T12:21:26.395Z,5.78
2022-08-17T12:24:31.462Z,4.95
2022-08-17T12:27:02.569Z,4.93
2022-08-17T12:29:35.718Z,4.50
2022-08-17T12:32:14.501Z,5.68
2022-08-17T12:34:44.578Z,5.07
2022-08-17T12:37:26.255Z,5.05
2022-08-17T12:40:22.809Z,5.05
2022-08-17T12:42:59.121Z,5.45
2022-08-17T12:45:31.913Z,4.88
2022-08-17T12:48:13.246Z,5.38
2022-08-17T12:50:45.813Z,5.75
2022-08-17T12:53:21.011Z,5.23
2022-08-17T12:55:50.748Z,3.95
2022-08-17T12:58:29.664Z,5.47
2022-08-17T13:01:09.229Z,5.13
2022-08-17T13:03:41.949Z,4.97
2022-08-17T13:06:14.367Z,5.13
2022-08-17T13:08:48.298Z,5.13
2022-08-17T13:11:16.579Z,5.78
2022-08-17T13:13:54.811Z,4.93
2022-08-17T13:16:25.485Z,5.18
2022-08-17T13:19:15.114Z,5.43
2022-08-17T13:21:56.249Z,5.50
2022-08-17T13:24:38.143Z,5.53
2022-08-17T13:27:12.591Z,6.13
2022-08-17T13:29:53.645Z,5.78
2022-08-17T13:32:33.487Z,5.07
2022-08-17T13:35:13.811Z,5.18
2022-08-17T13:37:59.020Z,5.17
2022-08-17T13:40:49.994Z,5.38
2022-08-17T13:43:45.296Z,4.90
2022-08-17T13:46:22.848Z,5.20
2022-08-17T13:49:04.217Z,5.90
2022-08-17T13:51:36.673Z,6.05
2022-08-17T13:54:07.122Z,4.93
2022-08-17T13:56:51.662Z,5.03
2022-08-17T13:59:53.572Z,4.82
2022-08-17T14:02:21.819Z,5.88
2022-08-17T14:04:49.310Z,5.53
2022-08-17T14:07:18.187Z,6.32
2022-08-17T14:09:59.534Z,5.53
2022-08-17T14:12:29.917Z,5.53
2022-08-17T14:14:58.942Z,6.32
2022-08-17T14:17:28.979Z,6.22
2022-08-17T14:19:56.362Z,5.90
2022-08-17T14:22:30.703Z,6.68
2022-08-17T14:25:01.645Z,6.97
2022-08-17T14:27:33.489Z,5.63
2022-08-17T14:30:10.405Z,7.07
2022-08-17T14:32:41.557Z,5.90
2022-08-17T14:35:15.991Z,6.88
2022-08-17T14:37:45.666Z,7.00
2022-08-17T14:40:17.243Z,6.47
2022-08-17T14:42:45.920Z,6.80
2022-08-17T14:45:30.270Z,6.50
2022-08-17T14:48:05.712Z,6.93
2022-08-17T14:50:35.359Z,6.18
2022-08-17T14:53:06.049Z,7.47
2022-08-17T14:55:33.724Z,6.22
2022-08-17T14:58:00.814Z,7.00
2022-08-17T15:00:28.620Z,6.13
2022-08-17T15:02:58.854Z,5.72
2022-08-17T15:05:34.000Z,6.22
2022-08-17T15:08:03.268Z,6.45
2022-08-17T15:10:31.391Z,5.63
2022-08-17T15:12:59.371Z,7.00
2022-08-17T15:15:27.184Z,6.63
2022-08-17T15:17:55.089Z,6.43
2022-08-17T15:20:28.011Z,7.22
2022-08-17T15:22:57.457Z,6.15
2022-08-17T15:25:31.898Z,7.18
2022-08-17T15:28:00.532Z,6.18
2022-08-17T15:30:28.097Z,6.32
2022-08-17T15:33:00.668Z,6.47
2022-08-17T15:35:32.305Z,7.45
2022-08-17T15:38:09.895Z,6.18
2022-08-17T15:40:45.451Z,6.28
2022-08-17T15:43:17.297Z,6.85
2022-08-17T15:45:59.793Z,7.13
2022-08-17T15:48:41.426Z,8.33
2022-08-17T15:51:26.153Z,6.88
2022-08-17T15:54:18.846Z,6.53
2022-08-17T15:56:49.444Z,6.95
2022-08-17T15:59:16.395Z,6.85
2022-08-17T16:03:13.738Z,7.30
2022-08-17T16:04:31.802Z,6.78
2022-08-17T16:07:00.238Z,7.20
2022-08-17T16:09:28.084Z,7.35
2022-08-17T16:11:56.070Z,7.70
2022-08-17T16:14:33.520Z,6.55
2022-08-17T16:17:04.430Z,7.03
2022-08-17T16:19:33.469Z,9.15
2022-08-17T16:22:00.852Z,8.40
2022-08-17T16:24:28.068Z,9.55
2022-08-17T16:26:55.550Z,12.20
2022-08-17T16:29:23.611Z,11.95
2022-08-17T16:31:51.270Z,13.68
2022-08-17T16:34:19.054Z,11.85
2022-08-17T16:36:54.675Z,14.30
2022-08-17T16:39:29.253Z,16.15
2022-08-17T16:41:57.615Z,16.88
2022-08-17T16:44:33.160Z,15.52
2022-08-17T16:47:01.347Z,16.83
2022-08-17T16:49:36.832Z,16.40
2022-08-17T16:52:10.100Z,16.65
2022-08-17T16:54:52.450Z,16.98
2022-08-17T16:57:37.113Z,16.80
2022-08-17T17:00:29.028Z,16.73
2022-08-17T17:02:56.597Z,17.92
2022-08-17T17:06:09.378Z,16.98
2022-08-17T17:08:49.387Z,15.63
2022-08-17T17:11:27.859Z,16.50
2022-08-17T17:14:02.250Z,16.52
2022-08-17T17:16:32.084Z,18.75
2022-08-17T17:19:34.211Z,19.17
2022-08-17T17:22:15.272Z,21.02
2022-08-17T17:25:11.545Z,19.48
2022-08-17T17:27:47.582Z,18.50
2022-08-17T17:30:37.036Z,19.67
2022-08-17T17:33:10.460Z,18.80
2022-08-17T17:38:23.674Z,18.73
2022-08-17T17:41:04.529Z,19.20
2022-08-17T17:43:39.606Z,19.55
2022-08-17T17:46:29.117Z,20.77
2022-08-17T17:48:58.334Z,20.23
2022-08-17T17:52:10.834Z,19.48
2022-08-17T17:55:05.304Z,20.92
2022-08-17T17:58:09.361Z,20.42
2022-08-17T18:00:42.166Z,19.67
2022-08-17T18:03:40.165Z,22.88
2022-08-17T18:07:13.265Z,22.83
2022-08-17T18:09:51.590Z,21.98
2022-08-17T18:12:38.343Z,23.38
2022-08-17T18:15:25.785Z,26.17
2022-08-17T18:18:16.004Z,25.92
2022-08-17T18:20:55.843Z,26.58
2022-08-17T18:23:27.976Z,26.60
2022-08-17T18:25:58.574Z,26.30
2022-08-17T18:28:34.590Z,25.90
2022-08-17T18:31:21.940Z,26.75
2022-08-17T18:33:54.303Z,28.55
2022-08-17T18:36:36.398Z,28.90
2022-08-17T18:39:27.882Z,28.00
2022-08-17T18:41:58.741Z,27.90
2022-08-17T18:44:42.532Z,29.58
2022-08-17T18:49:57.994Z,27.30
2022-08-17T18:52:31.174Z,27.83
2022-08-17T18:55:13.800Z,29.52
2022-08-17T18:57:56.221Z,28.48
2022-08-17T19:00:40.468Z,28.05
2022-08-17T19:03:16.605Z,28.85
2022-08-17T19:05:54.538Z,28.38
2022-08-17T19:08:35.117Z,29.38
2022-08-17T19:11:28.254Z,31.80
2022-08-17T19:14:04.983Z,31.27
2022-08-17T19:17:01.069Z,33.55
2022-08-17T19:19:54.626Z,33.10
2022-08-17T19:22:43.772Z,31.17
2022-08-17T19:25:23.119Z,31.95
2022-08-17T19:28:21.844Z,30.88
2022-08-17T19:30:56.217Z,30.88
2022-08-17T19:33:24.230Z,31.67
2022-08-17T19:36:07.705Z,32.08
2022-08-17T19:39:22.625Z,29.63
2022-08-17T19:42:13.557Z,31.10
2022-08-17T19:44:56.383Z,31.05
2022-08-17T19:47:58.586Z,30.42
2022-08-17T19:50:42.519Z,32.38
2022-08-17T19:54:04.765Z,32.88
2022-08-17T19:56:55.813Z,33.58
2022-08-17T19:59:59.201Z,34.10
2022-08-17T20:02:42.475Z,33.67
2022-08-17T20:06:11.052Z,32.72
2022-08-17T20:08:49.155Z,34.22
2022-08-17T20:11:34.008Z,34.28
2022-08-17T20:14:13.489Z,33.10
2022-08-17T20:16:40.619Z,34.10
2022-08-17T20:19:38.837Z,32.88
2022-08-17T20:22:28.352Z,32.72
2022-08-17T20:25:11.548Z,29.52
2022-08-17T20:28:05.624Z,32.80
2022-08-17T20:30:42.613Z,31.92
2022-08-17T20:33:32.858Z,31.23
2022-08-17T20:36:11.346Z,31.45
2022-08-17T20:38:42.038Z,34.80
2022-08-17T20:41:24.667Z,33.83
2022-08-17T20:43:58.709Z,31.55
2022-08-17T20:46:28.513Z,31.38
2022-08-17T20:49:18.498Z,27.67
2022-08-17T20:52:09.772Z,29.00
2022-08-17T20:54:57.380Z,25.95
2022-08-17T20:57:33.568Z,26.88
2022-08-17T21:00:33.812Z,27.13
2022-08-17T21:03:22.526Z,25.83
2022-08-17T21:06:00.217Z,26.52
2022-08-17T21:08:35.805Z,24.35
2022-08-17T21:12:03.876Z,23.45
2022-08-17T21:14:58.712Z,22.63
2022-08-17T21:17:43.839Z,18.60
2022-08-17T21:20:52.322Z,13.18
2022-08-17T21:23:38.268Z,12.73
2022-08-17T21:26:30.731Z,11.85
2022-08-17T21:29:31.779Z,11.43
2022-08-17T21:31:59.568Z,9.02
2022-08-17T21:34:33.006Z,8.90
2022-08-17T21:37:23.639Z,8.65
2022-08-17T21:40:19.310Z,9.30
2022-08-17T21:42:53.902Z,8.68
2022-08-17T21:45:32.500Z,7.00
2022-08-17T21:48:16.185Z,6.75
2022-08-17T21:50:57.563Z,5.97
2022-08-17T21:53:37.426Z,6.88
2022-08-17T21:56:06.448Z,5.95
2022-08-17T21:58:39.983Z,6.40
2022-08-17T22:01:39.756Z,7.30
2022-08-17T22:04:11.516Z,6.72
2022-08-17T22:06:52.716Z,7.32
2022-08-17T22:09:48.649Z,7.00
2022-08-17T22:12:24.286Z,7.90
2022-08-17T22:15:04.676Z,8.63
2022-08-17T22:17:41.246Z,8.38
2022-08-17T22:20:16.333Z,8.40
2022-08-17T22:23:08.340Z,7.70
2022-08-17T22:25:40.948Z,7.03
2022-08-17T22:28:11.977Z,7.80
2022-08-17T22:30:44.133Z,8.75
2022-08-17T22:33:33.338Z,8.73
2022-08-17T22:36:42.111Z,9.90
2022-08-17T22:39:09.009Z,9.45
2022-08-17T22:41:52.552Z,9.20
2022-08-17T22:44:19.561Z,10.10
2022-08-17T22:47:11.340Z,9.23
2022-08-17T22:49:53.931Z,9.75
2022-08-17T22:53:00.624Z,8.43
2022-08-17T22:55:52.466Z,9.32
2022-08-17T22:58:42.648Z,9.90
2022-08-17T23:01:26.324Z,9.20
2022-08-17T23:03:58.079Z,9.60
2022-08-17T23:06:25.437Z,9.82
2022-08-17T23:08:54.962Z,9.15
2022-08-17T23:11:36.646Z,10.77
2022-08-17T23:14:15.841Z,11.95
2022-08-17T23:16:43.262Z,13.05
2022-08-17T23:19:17.717Z,13.38
2022-08-17T23:21:46.008Z,15.38
2022-08-17T23:24:23.837Z,12.82
2022-08-17T23:26:52.586Z,14.50
2022-08-17T23:29:21.771Z,14.55
2022-08-17T23:31:51.383Z,13.95
2022-08-17T23:34:19.733Z,14.20
2022-08-17T23:36:52.452Z,15.73
2022-08-17T23:39:24.664Z,15.95
2022-08-17T23:42:01.297Z,15.23
2022-08-17T23:44:29.143Z,16.13
2022-08-17T23:46:57.851Z,17.50
2022-08-17T23:49:25.664Z,15.52
2022-08-17T23:51:56.858Z,15.85
2022-08-17T23:54:41.692Z,15.57
2022-08-17T23:57:11.841Z,16.50
2022-08-17T23:59:41.012Z,14.68
